Terminal Aerodrome Forecast
Issued by NWS

Home | Current Version | Previous Version | Text Only | Print | Product List | Glossary Off
Versions: 1 2 3 4 5 6 7 8 9 10 11 12 13 14 15 16 17 18 19 20

552
FTUS43 KBIS 031126
TAFMOT
TAF
KMOT 031126Z 0312/0412 23005KT P6SM SCT100
     FM031500 28009KT P6SM OVC045
     FM031900 29012KT P6SM OVC025
     FM032100 29012KT P6SM OVC015=

USA.gov is the U.S. government's official web portal to all federal, state and local government web resources and services.